Archival Weather

General Ignacio P Garcia Intl

General Ignacio P Garcia Intl, Mexico (MMHO)

Report from: Tuesday, September 19, 2023 10:40 AM CST
Current time: Friday, June 21, 2024 5:09 PM CST

Current weather – Weather history – Daily summaries
Weather forecast

Temperature33.0°C (91.4°F)
Heat index36.1°C (97.1°F)
Dew point21.0°C (69.8°F)
Winds 6 kts (3.1 m/s, 6.9 mph) East (80°)
Visibility10 mi. (16.1 km)
Clouds Sky clear
Altimeter29.90 in.Hg (1013 mB)
Relative humidity49 %
Density altitude2,410 ft. (735 m)
Flight conditions Visual Meteorological Conditions
Raw dataMMHO 191640Z 08006KT 10SM SKC 33/21 A2990 RMK HZY
An error has occurred. This application may no longer respond until reloaded. Reload 🗙